sensor_id;sensor_type;location;lat;lon;timestamp;P1;durP1;ratioP1;P2;durP2;ratioP2
21424;SDS011;10873;51.132;16.848;2023-03-15T00:19:06;2.70;;;1.50;;
21424;SDS011;10873;51.132;16.848;2023-03-15T00:21:32;1.98;;;1.30;;
21424;SDS011;10873;51.132;16.848;2023-03-15T00:23:59;2.33;;;1.38;;
21424;SDS011;10873;51.132;16.848;2023-03-15T00:26:26;3.53;;;1.73;;
21424;SDS011;10873;51.132;16.848;2023-03-15T00:28:52;3.72;;;1.50;;
21424;SDS011;10873;51.132;16.848;2023-03-15T00:31:18;4.35;;;1.58;;
21424;SDS011;10873;51.132;16.848;2023-03-15T00:33:46;2.70;;;1.20;;
21424;SDS011;10873;51.132;16.848;2023-03-15T00:36:14;3.05;;;1.48;;
21424;SDS011;10873;51.132;16.848;2023-03-15T00:38:40;4.03;;;1.83;;
21424;SDS011;10873;51.132;16.848;2023-03-15T00:41:09;6.03;;;1.65;;
21424;SDS011;10873;51.132;16.848;2023-03-15T00:43:36;4.15;;;1.60;;
21424;SDS011;10873;51.132;16.848;2023-03-15T00:46:03;4.65;;;1.48;;
21424;SDS011;10873;51.132;16.848;2023-03-15T00:48:30;3.15;;;1.63;;
21424;SDS011;10873;51.132;16.848;2023-03-15T00:51:00;3.10;;;1.65;;
21424;SDS011;10873;51.132;16.848;2023-03-15T00:53:29;3.65;;;1.60;;
21424;SDS011;10873;51.132;16.848;2023-03-15T00:55:55;3.70;;;1.77;;
21424;SDS011;10873;51.132;16.848;2023-03-15T00:58:21;3.80;;;1.60;;
21424;SDS011;10873;51.132;16.848;2023-03-15T01:00:48;3.60;;;1.67;;
21424;SDS011;10873;51.132;16.848;2023-03-15T01:03:14;3.40;;;1.70;;
21424;SDS011;10873;51.132;16.848;2023-03-15T01:05:40;3.60;;;1.80;;
21424;SDS011;10873;51.132;16.848;2023-03-15T01:08:06;3.75;;;1.38;;
21424;SDS011;10873;51.132;16.848;2023-03-15T01:10:34;3.35;;;1.50;;
21424;SDS011;10873;51.132;16.848;2023-03-15T01:13:00;5.10;;;1.48;;
21424;SDS011;10873;51.132;16.848;2023-03-15T01:15:26;4.57;;;1.60;;
21424;SDS011;10873;51.132;16.848;2023-03-15T01:17:52;4.00;;;1.85;;
21424;SDS011;10873;51.132;16.848;2023-03-15T01:20:20;4.47;;;1.67;;
21424;SDS011;10873;51.132;16.848;2023-03-15T01:22:46;4.68;;;1.40;;
21424;SDS011;10873;51.132;16.848;2023-03-15T01:25:12;3.83;;;1.45;;
21424;SDS011;10873;51.132;16.848;2023-03-15T01:27:39;4.07;;;1.60;;
21424;SDS011;10873;51.132;16.848;2023-03-15T01:30:06;3.58;;;1.60;;
21424;SDS011;10873;51.132;16.848;2023-03-15T01:32:32;4.65;;;1.50;;
21424;SDS011;10873;51.132;16.848;2023-03-15T01:34:59;2.83;;;1.27;;
21424;SDS011;10873;51.132;16.848;2023-03-15T01:37:25;5.00;;;1.80;;
21424;SDS011;10873;51.132;16.848;2023-03-15T01:39:51;4.60;;;1.50;;
21424;SDS011;10873;51.132;16.848;2023-03-15T01:42:17;4.05;;;1.50;;
21424;SDS011;10873;51.132;16.848;2023-03-15T01:44:49;4.78;;;1.40;;
21424;SDS011;10873;51.132;16.848;2023-03-15T01:47:17;3.97;;;1.45;;
21424;SDS011;10873;51.132;16.848;2023-03-15T01:49:44;4.68;;;1.45;;
21424;SDS011;10873;51.132;16.848;2023-03-15T01:52:15;2.60;;;1.13;;
21424;SDS011;10873;51.132;16.848;2023-03-15T01:54:44;2.63;;;1.25;;
21424;SDS011;10873;51.132;16.848;2023-03-15T01:57:15;5.50;;;1.38;;
21424;SDS011;10873;51.132;16.848;2023-03-15T01:59:49;3.50;;;1.50;;
21424;SDS011;10873;51.132;16.848;2023-03-15T02:02:19;3.85;;;1.42;;
21424;SDS011;10873;51.132;16.848;2023-03-15T02:04:48;5.22;;;1.45;;
21424;SDS011;10873;51.132;16.848;2023-03-15T02:07:17;3.28;;;1.63;;
21424;SDS011;10873;51.132;16.848;2023-03-15T02:09:48;3.05;;;1.50;;
21424;SDS011;10873;51.132;16.848;2023-03-15T02:12:18;4.10;;;1.40;;
21424;SDS011;10873;51.132;16.848;2023-03-15T02:14:45;3.03;;;1.20;;
21424;SDS011;10873;51.132;16.848;2023-03-15T02:17:13;2.17;;;1.30;;
21424;SDS011;10873;51.132;16.848;2023-03-15T02:19:41;5.55;;;1.50;;
21424;SDS011;10873;51.132;16.848;2023-03-15T02:22:20;4.88;;;1.73;;
21424;SDS011;10873;51.132;16.848;2023-03-15T02:24:53;3.97;;;1.67;;
21424;SDS011;10873;51.132;16.848;2023-03-15T02:27:26;3.85;;;1.80;;
21424;SDS011;10873;51.132;16.848;2023-03-15T02:29:55;4.13;;;1.40;;
21424;SDS011;10873;51.132;16.848;2023-03-15T02:32:21;3.67;;;1.30;;
21424;SDS011;10873;51.132;16.848;2023-03-15T02:34:47;4.28;;;1.75;;
21424;SDS011;10873;51.132;16.848;2023-03-15T02:37:13;3.47;;;1.42;;
21424;SDS011;10873;51.132;16.848;2023-03-15T02:39:39;4.65;;;1.65;;
21424;SDS011;10873;51.132;16.848;2023-03-15T02:42:05;3.30;;;1.40;;
21424;SDS011;10873;51.132;16.848;2023-03-15T02:44:34;2.78;;;1.30;;
21424;SDS011;10873;51.132;16.848;2023-03-15T02:47:03;4.10;;;1.50;;
21424;SDS011;10873;51.132;16.848;2023-03-15T02:49:33;5.13;;;1.60;;
21424;SDS011;10873;51.132;16.848;2023-03-15T02:52:01;3.17;;;1.35;;
21424;SDS011;10873;51.132;16.848;2023-03-15T02:54:28;3.58;;;1.58;;
21424;SDS011;10873;51.132;16.848;2023-03-15T02:56:54;4.32;;;1.67;;
21424;SDS011;10873;51.132;16.848;2023-03-15T02:59:20;4.60;;;1.65;;
21424;SDS011;10873;51.132;16.848;2023-03-15T03:01:47;3.28;;;1.23;;
21424;SDS011;10873;51.132;16.848;2023-03-15T03:04:13;3.13;;;1.48;;
21424;SDS011;10873;51.132;16.848;2023-03-15T03:06:39;6.05;;;1.77;;
21424;SDS011;10873;51.132;16.848;2023-03-15T03:09:08;5.82;;;1.80;;
21424;SDS011;10873;51.132;16.848;2023-03-15T03:11:34;4.60;;;1.52;;
21424;SDS011;10873;51.132;16.848;2023-03-15T03:14:00;3.75;;;1.40;;
21424;SDS011;10873;51.132;16.848;2023-03-15T03:16:26;3.40;;;1.58;;
21424;SDS011;10873;51.132;16.848;2023-03-15T03:18:54;5.65;;;2.10;;
21424;SDS011;10873;51.132;16.848;2023-03-15T03:21:19;4.50;;;1.80;;
21424;SDS011;10873;51.132;16.848;2023-03-15T03:23:46;5.35;;;1.85;;
21424;SDS011;10873;51.132;16.848;2023-03-15T03:26:12;4.25;;;1.73;;
21424;SDS011;10873;51.132;16.848;2023-03-15T03:28:41;4.05;;;1.67;;
21424;SDS011;10873;51.132;16.848;2023-03-15T03:31:14;3.33;;;1.52;;
21424;SDS011;10873;51.132;16.848;2023-03-15T03:33:41;4.93;;;1.73;;
21424;SDS011;10873;51.132;16.848;2023-03-15T03:36:08;3.88;;;1.70;;
21424;SDS011;10873;51.132;16.848;2023-03-15T03:38:38;3.92;;;1.58;;
21424;SDS011;10873;51.132;16.848;2023-03-15T03:41:04;4.30;;;1.58;;
21424;SDS011;10873;51.132;16.848;2023-03-15T03:43:30;4.57;;;1.58;;
21424;SDS011;10873;51.132;16.848;2023-03-15T03:45:56;3.75;;;1.67;;
21424;SDS011;10873;51.132;16.848;2023-03-15T03:48:23;4.15;;;1.67;;
21424;SDS011;10873;51.132;16.848;2023-03-15T03:50:49;3.28;;;1.58;;
21424;SDS011;10873;51.132;16.848;2023-03-15T03:53:16;3.85;;;1.40;;
21424;SDS011;10873;51.132;16.848;2023-03-15T03:55:42;3.90;;;1.65;;
21424;SDS011;10873;51.132;16.848;2023-03-15T03:58:08;4.13;;;1.50;;
21424;SDS011;10873;51.132;16.848;2023-03-15T04:00:34;5.55;;;1.70;;
21424;SDS011;10873;51.132;16.848;2023-03-15T04:03:01;5.28;;;1.58;;
21424;SDS011;10873;51.132;16.848;2023-03-15T04:05:27;5.07;;;1.88;;
21424;SDS011;10873;51.132;16.848;2023-03-15T04:07:53;3.78;;;1.48;;
21424;SDS011;10873;51.132;16.848;2023-03-15T04:10:20;2.70;;;1.17;;
21424;SDS011;10873;51.132;16.848;2023-03-15T04:12:51;2.88;;;1.55;;
21424;SDS011;10873;51.132;16.848;2023-03-15T04:15:17;3.65;;;1.65;;
21424;SDS011;10873;51.132;16.848;2023-03-15T04:17:44;3.53;;;1.63;;
21424;SDS011;10873;51.132;16.848;2023-03-15T04:20:10;6.57;;;1.50;;
21424;SDS011;10873;51.132;16.848;2023-03-15T04:22:37;4.40;;;1.60;;
21424;SDS011;10873;51.132;16.848;2023-03-15T04:25:04;4.00;;;1.38;;
21424;SDS011;10873;51.132;16.848;2023-03-15T04:27:33;3.58;;;1.50;;
21424;SDS011;10873;51.132;16.848;2023-03-15T04:29:59;5.60;;;1.63;;
21424;SDS011;10873;51.132;16.848;2023-03-15T04:32:29;2.50;;;1.40;;
21424;SDS011;10873;51.132;16.848;2023-03-15T04:34:55;3.35;;;1.40;;
21424;SDS011;10873;51.132;16.848;2023-03-15T04:37:22;5.20;;;1.80;;
21424;SDS011;10873;51.132;16.848;2023-03-15T04:39:48;2.72;;;1.48;;
21424;SDS011;10873;51.132;16.848;2023-03-15T04:42:14;5.28;;;1.70;;
21424;SDS011;10873;51.132;16.848;2023-03-15T04:44:41;3.40;;;1.40;;
21424;SDS011;10873;51.132;16.848;2023-03-15T04:47:07;2.92;;;1.50;;
21424;SDS011;10873;51.132;16.848;2023-03-15T04:49:33;4.97;;;1.60;;
21424;SDS011;10873;51.132;16.848;2023-03-15T04:52:00;4.03;;;1.30;;
21424;SDS011;10873;51.132;16.848;2023-03-15T04:54:26;4.63;;;1.38;;
21424;SDS011;10873;51.132;16.848;2023-03-15T04:56:52;3.10;;;1.35;;
21424;SDS011;10873;51.132;16.848;2023-03-15T04:59:18;2.80;;;1.30;;
21424;SDS011;10873;51.132;16.848;2023-03-15T05:01:46;5.72;;;1.60;;
21424;SDS011;10873;51.132;16.848;2023-03-15T05:04:12;5.10;;;1.90;;
21424;SDS011;10873;51.132;16.848;2023-03-15T05:06:38;7.43;;;1.67;;
21424;SDS011;10873;51.132;16.848;2023-03-15T05:09:04;4.95;;;1.50;;
21424;SDS011;10873;51.132;16.848;2023-03-15T05:11:31;3.80;;;1.58;;
21424;SDS011;10873;51.132;16.848;2023-03-15T05:13:56;3.92;;;1.30;;
21424;SDS011;10873;51.132;16.848;2023-03-15T05:16:23;8.02;;;1.85;;
21424;SDS011;10873;51.132;16.848;2023-03-15T05:18:50;10.43;;;1.92;;
21424;SDS011;10873;51.132;16.848;2023-03-15T05:21:16;28.60;;;3.53;;
21424;SDS011;10873;51.132;16.848;2023-03-15T05:23:42;8.70;;;2.25;;
21424;SDS011;10873;51.132;16.848;2023-03-15T05:26:08;16.40;;;2.08;;
21424;SDS011;10873;51.132;16.848;2023-03-15T05:28:34;7.88;;;2.10;;
21424;SDS011;10873;51.132;16.848;2023-03-15T05:31:01;11.52;;;2.10;;
21424;SDS011;10873;51.132;16.848;2023-03-15T05:33:27;8.43;;;2.00;;
21424;SDS011;10873;51.132;16.848;2023-03-15T05:35:55;6.13;;;1.88;;
21424;SDS011;10873;51.132;16.848;2023-03-15T05:38:20;9.13;;;2.08;;
21424;SDS011;10873;51.132;16.848;2023-03-15T05:40:51;12.10;;;2.10;;
21424;SDS011;10873;51.132;16.848;2023-03-15T05:43:18;4.57;;;1.60;;
21424;SDS011;10873;51.132;16.848;2023-03-15T05:45:44;6.35;;;1.90;;
21424;SDS011;10873;51.132;16.848;2023-03-15T05:48:11;5.45;;;2.17;;
21424;SDS011;10873;51.132;16.848;2023-03-15T05:50:38;5.70;;;1.70;;
21424;SDS011;10873;51.132;16.848;2023-03-15T05:53:05;6.40;;;1.80;;
21424;SDS011;10873;51.132;16.848;2023-03-15T05:55:31;4.65;;;1.58;;
21424;SDS011;10873;51.132;16.848;2023-03-15T05:57:57;5.85;;;1.27;;
21424;SDS011;10873;51.132;16.848;2023-03-15T06:00:24;5.40;;;1.38;;
21424;SDS011;10873;51.132;16.848;2023-03-15T06:02:50;4.95;;;1.60;;
21424;SDS011;10873;51.132;16.848;2023-03-15T06:05:17;7.05;;;1.80;;
21424;SDS011;10873;51.132;16.848;2023-03-15T06:07:43;3.28;;;1.48;;
21424;SDS011;10873;51.132;16.848;2023-03-15T06:10:12;3.42;;;1.48;;
21424;SDS011;10873;51.132;16.848;2023-03-15T06:12:38;4.20;;;1.50;;
21424;SDS011;10873;51.132;16.848;2023-03-15T06:15:05;4.45;;;1.70;;
21424;SDS011;10873;51.132;16.848;2023-03-15T06:17:31;4.35;;;1.80;;
21424;SDS011;10873;51.132;16.848;2023-03-15T06:19:57;3.28;;;1.33;;
21424;SDS011;10873;51.132;16.848;2023-03-15T06:22:23;6.28;;;1.95;;
21424;SDS011;10873;51.132;16.848;2023-03-15T06:24:49;3.85;;;1.60;;
21424;SDS011;10873;51.132;16.848;2023-03-15T06:27:17;3.72;;;1.33;;
21424;SDS011;10873;51.132;16.848;2023-03-15T06:29:46;4.03;;;1.58;;
21424;SDS011;10873;51.132;16.848;2023-03-15T06:32:12;4.63;;;1.50;;
21424;SDS011;10873;51.132;16.848;2023-03-15T06:34:38;5.35;;;1.60;;
21424;SDS011;10873;51.132;16.848;2023-03-15T06:37:04;4.90;;;1.70;;
21424;SDS011;10873;51.132;16.848;2023-03-15T06:39:31;4.38;;;1.60;;
21424;SDS011;10873;51.132;16.848;2023-03-15T06:41:58;3.80;;;1.50;;
21424;SDS011;10873;51.132;16.848;2023-03-15T06:44:28;3.90;;;1.40;;
21424;SDS011;10873;51.132;16.848;2023-03-15T06:46:54;4.43;;;1.48;;
21424;SDS011;10873;51.132;16.848;2023-03-15T06:49:20;3.50;;;1.65;;
21424;SDS011;10873;51.132;16.848;2023-03-15T06:51:46;6.07;;;1.95;;
21424;SDS011;10873;51.132;16.848;2023-03-15T06:54:12;3.92;;;1.65;;
21424;SDS011;10873;51.132;16.848;2023-03-15T06:56:38;7.32;;;2.22;;
21424;SDS011;10873;51.132;16.848;2023-03-15T06:59:04;2.90;;;1.42;;
21424;SDS011;10873;51.132;16.848;2023-03-15T07:01:31;5.63;;;2.05;;
21424;SDS011;10873;51.132;16.848;2023-03-15T07:03:58;6.18;;;1.70;;
21424;SDS011;10873;51.132;16.848;2023-03-15T07:06:24;4.82;;;1.58;;
21424;SDS011;10873;51.132;16.848;2023-03-15T07:08:52;4.35;;;1.60;;
21424;SDS011;10873;51.132;16.848;2023-03-15T07:11:18;5.05;;;1.75;;
21424;SDS011;10873;51.132;16.848;2023-03-15T07:13:44;5.05;;;1.83;;
21424;SDS011;10873;51.132;16.848;2023-03-15T07:16:10;4.85;;;1.83;;
21424;SDS011;10873;51.132;16.848;2023-03-15T07:18:38;4.93;;;1.65;;
21424;SDS011;10873;51.132;16.848;2023-03-15T07:21:04;5.45;;;1.77;;
21424;SDS011;10873;51.132;16.848;2023-03-15T07:23:32;3.13;;;1.58;;
21424;SDS011;10873;51.132;16.848;2023-03-15T07:25:58;6.65;;;1.77;;
21424;SDS011;10873;51.132;16.848;2023-03-15T07:28:25;5.55;;;2.00;;
21424;SDS011;10873;51.132;16.848;2023-03-15T07:30:52;3.88;;;1.63;;
21424;SDS011;10873;51.132;16.848;2023-03-15T07:33:19;6.82;;;2.03;;
21424;SDS011;10873;51.132;16.848;2023-03-15T07:35:49;5.28;;;1.58;;
21424;SDS011;10873;51.132;16.848;2023-03-15T07:38:16;4.80;;;1.88;;
21424;SDS011;10873;51.132;16.848;2023-03-15T07:40:42;6.47;;;1.92;;
21424;SDS011;10873;51.132;16.848;2023-03-15T07:43:08;5.97;;;1.85;;
21424;SDS011;10873;51.132;16.848;2023-03-15T07:45:34;6.72;;;1.90;;
21424;SDS011;10873;51.132;16.848;2023-03-15T07:48:01;5.28;;;2.00;;
21424;SDS011;10873;51.132;16.848;2023-03-15T07:50:27;4.90;;;1.65;;
21424;SDS011;10873;51.132;16.848;2023-03-15T07:52:54;3.70;;;1.75;;
21424;SDS011;10873;51.132;16.848;2023-03-15T07:55:20;8.43;;;2.20;;
21424;SDS011;10873;51.132;16.848;2023-03-15T07:57:46;6.55;;;1.80;;
21424;SDS011;10873;51.132;16.848;2023-03-15T08:00:13;5.78;;;1.65;;
21424;SDS011;10873;51.132;16.848;2023-03-15T08:02:40;5.25;;;1.80;;
21424;SDS011;10873;51.132;16.848;2023-03-15T08:05:06;8.75;;;1.92;;
21424;SDS011;10873;51.132;16.848;2023-03-15T08:07:32;6.03;;;2.10;;
21424;SDS011;10873;51.132;16.848;2023-03-15T08:10:01;5.05;;;1.73;;
21424;SDS011;10873;51.132;16.848;2023-03-15T08:12:27;5.47;;;1.90;;
21424;SDS011;10873;51.132;16.848;2023-03-15T08:14:54;4.80;;;1.73;;
21424;SDS011;10873;51.132;16.848;2023-03-15T08:20:24;6.88;;;2.33;;
21424;SDS011;10873;51.132;16.848;2023-03-15T08:22:50;7.93;;;2.17;;
21424;SDS011;10873;51.132;16.848;2023-03-15T08:25:18;10.05;;;2.53;;
21424;SDS011;10873;51.132;16.848;2023-03-15T08:27:46;7.78;;;2.45;;
21424;SDS011;10873;51.132;16.848;2023-03-15T08:30:12;10.60;;;3.05;;
21424;SDS011;10873;51.132;16.848;2023-03-15T08:32:40;10.95;;;2.83;;
21424;SDS011;10873;51.132;16.848;2023-03-15T08:35:07;10.23;;;3.00;;
21424;SDS011;10873;51.132;16.848;2023-03-15T08:37:34;8.90;;;3.22;;
21424;SDS011;10873;51.132;16.848;2023-03-15T08:40:00;8.43;;;2.63;;
21424;SDS011;10873;51.132;16.848;2023-03-15T08:42:33;8.00;;;2.75;;
21424;SDS011;10873;51.132;16.848;2023-03-15T08:44:59;9.73;;;3.28;;
21424;SDS011;10873;51.132;16.848;2023-03-15T08:47:26;8.18;;;2.50;;
21424;SDS011;10873;51.132;16.848;2023-03-15T08:49:52;10.02;;;3.10;;
21424;SDS011;10873;51.132;16.848;2023-03-15T08:52:18;10.18;;;3.47;;
21424;SDS011;10873;51.132;16.848;2023-03-15T08:54:45;11.48;;;3.53;;
21424;SDS011;10873;51.132;16.848;2023-03-15T08:57:12;9.15;;;3.60;;
21424;SDS011;10873;51.132;16.848;2023-03-15T08:59:39;12.35;;;3.75;;
21424;SDS011;10873;51.132;16.848;2023-03-15T09:02:05;9.50;;;3.28;;
21424;SDS011;10873;51.132;16.848;2023-03-15T09:04:33;9.70;;;3.45;;
21424;SDS011;10873;51.132;16.848;2023-03-15T09:06:59;12.05;;;3.53;;
21424;SDS011;10873;51.132;16.848;2023-03-15T09:09:26;10.23;;;4.00;;
21424;SDS011;10873;51.132;16.848;2023-03-15T09:11:52;12.50;;;3.55;;
21424;SDS011;10873;51.132;16.848;2023-03-15T09:14:20;8.38;;;3.35;;
21424;SDS011;10873;51.132;16.848;2023-03-15T09:16:47;11.77;;;3.72;;
21424;SDS011;10873;51.132;16.848;2023-03-15T09:19:13;9.50;;;2.72;;
21424;SDS011;10873;51.132;16.848;2023-03-15T09:21:39;9.30;;;3.28;;
21424;SDS011;10873;51.132;16.848;2023-03-15T09:24:05;10.60;;;3.00;;
21424;SDS011;10873;51.132;16.848;2023-03-15T09:26:32;11.60;;;3.35;;
21424;SDS011;10873;51.132;16.848;2023-03-15T09:28:58;8.77;;;2.85;;
21424;SDS011;10873;51.132;16.848;2023-03-15T09:31:24;8.32;;;3.33;;
21424;SDS011;10873;51.132;16.848;2023-03-15T09:33:51;7.72;;;2.65;;
21424;SDS011;10873;51.132;16.848;2023-03-15T09:36:18;14.52;;;3.05;;
21424;SDS011;10873;51.132;16.848;2023-03-15T09:38:43;10.07;;;2.67;;
21424;SDS011;10873;51.132;16.848;2023-03-15T09:41:15;9.20;;;2.58;;
21424;SDS011;10873;51.132;16.848;2023-03-15T09:43:50;8.32;;;2.45;;
21424;SDS011;10873;51.132;16.848;2023-03-15T09:46:37;7.10;;;2.35;;
21424;SDS011;10873;51.132;16.848;2023-03-15T09:49:11;8.80;;;2.75;;
21424;SDS011;10873;51.132;16.848;2023-03-15T09:51:43;8.43;;;2.55;;
21424;SDS011;10873;51.132;16.848;2023-03-15T09:54:17;7.82;;;2.08;;
21424;SDS011;10873;51.132;16.848;2023-03-15T09:56:49;4.28;;;1.75;;
21424;SDS011;10873;51.132;16.848;2023-03-15T09:59:20;5.97;;;2.22;;
21424;SDS011;10873;51.132;16.848;2023-03-15T10:01:50;9.13;;;2.15;;
21424;SDS011;10873;51.132;16.848;2023-03-15T10:04:22;6.93;;;2.10;;
21424;SDS011;10873;51.132;16.848;2023-03-15T10:06:52;8.07;;;2.63;;
21424;SDS011;10873;51.132;16.848;2023-03-15T10:09:21;7.63;;;2.50;;
21424;SDS011;10873;51.132;16.848;2023-03-15T10:11:50;5.93;;;2.20;;
21424;SDS011;10873;51.132;16.848;2023-03-15T10:14:28;6.18;;;2.00;;
21424;SDS011;10873;51.132;16.848;2023-03-15T10:17:08;9.68;;;2.35;;
21424;SDS011;10873;51.132;16.848;2023-03-15T10:19:38;5.63;;;2.20;;
21424;SDS011;10873;51.132;16.848;2023-03-15T10:22:11;6.10;;;2.15;;
21424;SDS011;10873;51.132;16.848;2023-03-15T10:24:46;5.00;;;1.92;;
21424;SDS011;10873;51.132;16.848;2023-03-15T10:27:18;6.72;;;1.95;;
21424;SDS011;10873;51.132;16.848;2023-03-15T10:29:45;7.97;;;1.83;;
21424;SDS011;10873;51.132;16.848;2023-03-15T10:32:14;6.28;;;2.10;;
21424;SDS011;10873;51.132;16.848;2023-03-15T10:34:44;4.47;;;2.05;;
21424;SDS011;10873;51.132;16.848;2023-03-15T10:37:13;8.75;;;1.98;;
21424;SDS011;10873;51.132;16.848;2023-03-15T10:39:39;5.53;;;1.95;;
21424;SDS011;10873;51.132;16.848;2023-03-15T10:42:22;6.20;;;1.70;;
21424;SDS011;10873;51.132;16.848;2023-03-15T10:44:49;7.07;;;2.05;;
21424;SDS011;10873;51.132;16.848;2023-03-15T10:47:15;8.38;;;2.05;;
21424;SDS011;10873;51.132;16.848;2023-03-15T10:49:46;6.18;;;1.70;;
21424;SDS011;10873;51.132;16.848;2023-03-15T10:52:26;4.75;;;1.75;;
21424;SDS011;10873;51.132;16.848;2023-03-15T10:54:56;5.45;;;1.90;;
21424;SDS011;10873;51.132;16.848;2023-03-15T10:57:26;5.47;;;1.95;;
21424;SDS011;10873;51.132;16.848;2023-03-15T10:59:59;4.15;;;1.50;;
21424;SDS011;10873;51.132;16.848;2023-03-15T11:02:33;4.15;;;1.60;;
21424;SDS011;10873;51.132;16.848;2023-03-15T11:05:03;4.93;;;1.70;;
21424;SDS011;10873;51.132;16.848;2023-03-15T11:07:43;3.33;;;1.60;;
21424;SDS011;10873;51.132;16.848;2023-03-15T11:10:20;6.60;;;1.60;;
21424;SDS011;10873;51.132;16.848;2023-03-15T11:12:47;6.65;;;1.67;;
21424;SDS011;10873;51.132;16.848;2023-03-15T11:15:14;4.10;;;1.35;;
21424;SDS011;10873;51.132;16.848;2023-03-15T11:17:41;4.47;;;1.58;;
21424;SDS011;10873;51.132;16.848;2023-03-15T11:22:50;5.40;;;1.45;;
21424;SDS011;10873;51.132;16.848;2023-03-15T11:25:18;3.53;;;1.58;;
21424;SDS011;10873;51.132;16.848;2023-03-15T11:27:47;4.30;;;1.65;;
21424;SDS011;10873;51.132;16.848;2023-03-15T11:30:18;7.40;;;2.42;;
21424;SDS011;10873;51.132;16.848;2023-03-15T11:32:49;4.97;;;2.78;;
21424;SDS011;10873;51.132;16.848;2023-03-15T11:35:17;9.68;;;3.70;;
21424;SDS011;10873;51.132;16.848;2023-03-15T11:37:48;9.20;;;3.88;;
21424;SDS011;10873;51.132;16.848;2023-03-15T11:40:20;8.82;;;4.57;;
21424;SDS011;10873;51.132;16.848;2023-03-15T11:42:48;7.18;;;4.18;;
21424;SDS011;10873;51.132;16.848;2023-03-15T11:45:21;7.03;;;3.90;;
21424;SDS011;10873;51.132;16.848;2023-03-15T11:47:54;6.53;;;3.55;;
21424;SDS011;10873;51.132;16.848;2023-03-15T11:50:25;7.00;;;3.67;;
21424;SDS011;10873;51.132;16.848;2023-03-15T11:52:51;7.22;;;3.75;;
21424;SDS011;10873;51.132;16.848;2023-03-15T11:55:18;8.85;;;4.00;;
21424;SDS011;10873;51.132;16.848;2023-03-15T11:57:48;5.85;;;3.50;;
21424;SDS011;10873;51.132;16.848;2023-03-15T12:03:34;4.78;;;2.78;;
21424;SDS011;10873;51.132;16.848;2023-03-15T12:06:08;6.65;;;3.35;;
21424;SDS011;10873;51.132;16.848;2023-03-15T12:08:43;7.55;;;2.63;;
21424;SDS011;10873;51.132;16.848;2023-03-15T12:11:13;7.30;;;2.70;;
21424;SDS011;10873;51.132;16.848;2023-03-15T12:14:19;5.03;;;2.70;;
21424;SDS011;10873;51.132;16.848;2023-03-15T12:16:51;7.47;;;2.92;;
21424;SDS011;10873;51.132;16.848;2023-03-15T12:19:37;6.60;;;3.15;;
21424;SDS011;10873;51.132;16.848;2023-03-15T12:22:03;8.43;;;3.30;;
21424;SDS011;10873;51.132;16.848;2023-03-15T12:24:29;8.25;;;3.50;;
21424;SDS011;10873;51.132;16.848;2023-03-15T12:27:02;14.60;;;4.75;;
21424;SDS011;10873;51.132;16.848;2023-03-15T12:29:29;26.42;;;7.90;;
21424;SDS011;10873;51.132;16.848;2023-03-15T12:32:03;33.20;;;7.97;;
21424;SDS011;10873;51.132;16.848;2023-03-15T12:34:41;17.20;;;6.05;;
21424;SDS011;10873;51.132;16.848;2023-03-15T12:37:16;17.70;;;5.72;;
21424;SDS011;10873;51.132;16.848;2023-03-15T12:39:46;14.55;;;4.88;;
21424;SDS011;10873;51.132;16.848;2023-03-15T12:45:35;10.60;;;4.63;;
21424;SDS011;10873;51.132;16.848;2023-03-15T12:48:17;14.63;;;4.88;;
21424;SDS011;10873;51.132;16.848;2023-03-15T12:50:53;11.32;;;4.10;;
21424;SDS011;10873;51.132;16.848;2023-03-15T12:53:27;8.43;;;3.53;;
21424;SDS011;10873;51.132;16.848;2023-03-15T12:56:18;11.73;;;3.53;;
21424;SDS011;10873;51.132;16.848;2023-03-15T12:58:57;9.45;;;3.50;;
21424;SDS011;10873;51.132;16.848;2023-03-15T13:01:30;9.98;;;3.70;;
21424;SDS011;10873;51.132;16.848;2023-03-15T13:03:58;9.60;;;3.65;;
21424;SDS011;10873;51.132;16.848;2023-03-15T13:06:27;9.60;;;3.17;;
21424;SDS011;10873;51.132;16.848;2023-03-15T13:09:09;8.50;;;3.30;;
21424;SDS011;10873;51.132;16.848;2023-03-15T13:11:41;10.07;;;3.70;;
21424;SDS011;10873;51.132;16.848;2023-03-15T13:14:16;9.43;;;3.60;;
21424;SDS011;10873;51.132;16.848;2023-03-15T13:16:57;10.48;;;3.30;;
21424;SDS011;10873;51.132;16.848;2023-03-15T13:19:31;9.05;;;3.70;;
21424;SDS011;10873;51.132;16.848;2023-03-15T13:22:03;9.60;;;3.50;;
21424;SDS011;10873;51.132;16.848;2023-03-15T13:24:39;12.90;;;3.63;;
21424;SDS011;10873;51.132;16.848;2023-03-15T13:27:14;8.18;;;3.70;;
21424;SDS011;10873;51.132;16.848;2023-03-15T13:29:52;7.80;;;3.45;;
21424;SDS011;10873;51.132;16.848;2023-03-15T13:32:21;8.05;;;3.40;;
21424;SDS011;10873;51.132;16.848;2023-03-15T13:34:47;7.75;;;3.03;;
21424;SDS011;10873;51.132;16.848;2023-03-15T13:37:15;8.75;;;3.33;;
21424;SDS011;10873;51.132;16.848;2023-03-15T13:39:52;13.18;;;3.80;;
21424;SDS011;10873;51.132;16.848;2023-03-15T13:42:20;13.60;;;4.28;;
21424;SDS011;10873;51.132;16.848;2023-03-15T13:45:01;12.23;;;4.22;;
21424;SDS011;10873;51.132;16.848;2023-03-15T13:47:40;6.55;;;3.25;;
21424;SDS011;10873;51.132;16.848;2023-03-15T13:50:12;12.77;;;3.33;;
21424;SDS011;10873;51.132;16.848;2023-03-15T13:52:40;9.38;;;3.20;;
21424;SDS011;10873;51.132;16.848;2023-03-15T13:55:07;6.90;;;2.60;;
21424;SDS011;10873;51.132;16.848;2023-03-15T13:57:37;5.13;;;2.67;;
21424;SDS011;10873;51.132;16.848;2023-03-15T14:00:04;6.80;;;2.88;;
21424;SDS011;10873;51.132;16.848;2023-03-15T14:02:36;7.95;;;2.67;;
21424;SDS011;10873;51.132;16.848;2023-03-15T14:05:12;5.45;;;2.47;;
21424;SDS011;10873;51.132;16.848;2023-03-15T14:07:40;6.38;;;2.40;;
21424;SDS011;10873;51.132;16.848;2023-03-15T14:10:21;6.43;;;2.75;;
21424;SDS011;10873;51.132;16.848;2023-03-15T14:12:53;6.88;;;2.20;;
21424;SDS011;10873;51.132;16.848;2023-03-15T14:15:21;9.68;;;2.40;;
21424;SDS011;10873;51.132;16.848;2023-03-15T14:17:50;10.32;;;2.35;;
21424;SDS011;10873;51.132;16.848;2023-03-15T14:20:23;7.15;;;2.60;;
21424;SDS011;10873;51.132;16.848;2023-03-15T14:22:55;6.70;;;2.65;;
21424;SDS011;10873;51.132;16.848;2023-03-15T14:25:23;8.55;;;2.72;;
21424;SDS011;10873;51.132;16.848;2023-03-15T14:27:49;8.30;;;2.90;;
21424;SDS011;10873;51.132;16.848;2023-03-15T14:30:18;11.93;;;3.20;;
21424;SDS011;10873;51.132;16.848;2023-03-15T14:32:50;9.30;;;3.55;;
21424;SDS011;10873;51.132;16.848;2023-03-15T14:35:19;14.07;;;3.97;;
21424;SDS011;10873;51.132;16.848;2023-03-15T14:37:59;10.60;;;3.65;;
21424;SDS011;10873;51.132;16.848;2023-03-15T14:40:28;11.70;;;3.67;;
21424;SDS011;10873;51.132;16.848;2023-03-15T14:42:59;13.07;;;3.63;;
21424;SDS011;10873;51.132;16.848;2023-03-15T14:45:26;11.32;;;2.40;;
21424;SDS011;10873;51.132;16.848;2023-03-15T14:47:54;10.95;;;2.92;;
21424;SDS011;10873;51.132;16.848;2023-03-15T14:50:26;7.45;;;2.50;;
21424;SDS011;10873;51.132;16.848;2023-03-15T14:52:54;7.47;;;2.70;;
21424;SDS011;10873;51.132;16.848;2023-03-15T14:55:22;9.23;;;2.58;;
21424;SDS011;10873;51.132;16.848;2023-03-15T14:57:52;13.38;;;5.28;;
21424;SDS011;10873;51.132;16.848;2023-03-15T15:00:18;26.83;;;15.43;;
21424;SDS011;10873;51.132;16.848;2023-03-15T15:02:46;28.05;;;18.50;;
21424;SDS011;10873;51.132;16.848;2023-03-15T15:05:17;29.90;;;19.88;;
21424;SDS011;10873;51.132;16.848;2023-03-15T15:07:47;30.63;;;20.42;;
21424;SDS011;10873;51.132;16.848;2023-03-15T15:10:19;28.13;;;18.80;;
21424;SDS011;10873;51.132;16.848;2023-03-15T15:12:46;27.38;;;17.75;;